createdAt,value
2022-11-14T00:11:27.847Z,92.99
2022-11-14T00:14:18.846Z,92.90
2022-11-14T00:17:08.471Z,93.05
2022-11-14T00:19:58.848Z,93.10
2022-11-14T00:22:48.419Z,93.21
2022-11-14T00:25:37.816Z,93.21
2022-11-14T00:28:27.629Z,93.25
2022-11-14T00:31:17.100Z,92.96
2022-11-14T00:34:09.902Z,92.83
2022-11-14T00:36:59.076Z,92.89
2022-11-14T00:39:48.763Z,93.00
2022-11-14T00:42:38.724Z,92.74
2022-11-14T00:45:27.808Z,92.81
2022-11-14T00:48:17.251Z,92.98
2022-11-14T00:51:06.399Z,93.02
2022-11-14T00:53:55.814Z,92.87
2022-11-14T00:56:47.757Z,92.97
2022-11-14T00:59:37.146Z,93.06
2022-11-14T01:02:26.585Z,93.33
2022-11-14T01:05:15.986Z,93.18
2022-11-14T01:08:05.253Z,93.11
2022-11-14T01:10:54.350Z,93.07
2022-11-14T01:13:44.019Z,93.50
2022-11-14T01:16:33.433Z,93.34
2022-11-14T01:19:22.800Z,93.76
2022-11-14T01:22:12.144Z,93.84
2022-11-14T01:25:01.851Z,93.92
2022-11-14T01:27:51.506Z,94.18
2022-11-14T01:30:41.272Z,94.21
2022-11-14T01:33:30.783Z,94.16
2022-11-14T01:36:20.337Z,94.23
2022-11-14T01:39:09.389Z,94.26
2022-11-14T01:41:58.616Z,94.29
2022-11-14T01:44:48.867Z,94.31
2022-11-14T01:47:37.873Z,94.29
2022-11-14T01:50:28.937Z,94.58
2022-11-14T01:53:18.182Z,94.35
2022-11-14T01:56:10.242Z,94.37
2022-11-14T01:59:03.873Z,94.36
2022-11-14T02:01:54.313Z,94.37
2022-11-14T02:04:45.322Z,94.26
2022-11-14T02:07:38.115Z,94.16
2022-11-14T02:10:27.900Z,94.33
2022-11-14T02:13:20.433Z,94.49
2022-11-14T02:16:09.704Z,94.52
2022-11-14T02:18:59.823Z,94.41
2022-11-14T02:21:48.923Z,94.60
2022-11-14T02:24:38.345Z,94.51
2022-11-14T02:27:27.999Z,94.52
2022-11-14T02:30:20.101Z,94.50
2022-11-14T02:33:11.582Z,94.44
2022-11-14T02:36:01.348Z,94.30
2022-11-14T02:38:53.695Z,94.39
2022-11-14T02:41:43.011Z,94.49
2022-11-14T02:44:32.643Z,94.63
2022-11-14T02:47:21.947Z,94.61
2022-11-14T02:50:11.793Z,94.55
2022-11-14T02:53:01.139Z,94.49
2022-11-14T02:55:50.676Z,94.73
2022-11-14T02:58:40.344Z,94.71
2022-11-14T03:01:29.487Z,94.69
2022-11-14T03:04:19.072Z,94.65
2022-11-14T03:07:08.273Z,94.76
2022-11-14T03:09:57.688Z,94.82
2022-11-14T03:12:47.106Z,94.86
2022-11-14T03:15:39.205Z,94.98
2022-11-14T03:18:29.527Z,95.10
2022-11-14T03:21:20.581Z,95.11
2022-11-14T03:24:09.932Z,94.91
2022-11-14T03:26:59.129Z,95.17
2022-11-14T03:29:48.242Z,95.31
2022-11-14T03:32:37.437Z,95.51
2022-11-14T03:35:26.857Z,95.56
2022-11-14T03:38:16.063Z,95.69
2022-11-14T03:41:05.530Z,95.75
2022-11-14T03:43:55.398Z,95.90
2022-11-14T03:46:44.628Z,95.98
2022-11-14T03:49:34.714Z,96.30
2022-11-14T03:52:26.142Z,96.23
2022-11-14T03:55:15.731Z,96.18
2022-11-14T03:58:08.347Z,96.39
2022-11-14T04:00:57.847Z,96.33
2022-11-14T04:03:47.280Z,96.51
2022-11-14T04:06:36.708Z,96.83
2022-11-14T04:09:25.859Z,97.13
2022-11-14T04:12:15.995Z,96.96
2022-11-14T04:15:08.923Z,97.01
2022-11-14T04:17:58.157Z,97.12
2022-11-14T04:20:48.041Z,97.13
2022-11-14T04:23:37.196Z,97.16
2022-11-14T04:26:26.517Z,97.03
2022-11-14T04:29:15.857Z,97.25
2022-11-14T04:32:05.498Z,97.52
2022-11-14T04:34:57.959Z,97.25
2022-11-14T04:37:47.628Z,97.18
2022-11-14T04:40:36.875Z,97.20
2022-11-14T04:43:25.818Z,97.07
2022-11-14T04:46:14.914Z,97.23
2022-11-14T04:49:04.117Z,97.13
2022-11-14T04:51:53.306Z,96.99
2022-11-14T04:54:42.630Z,96.95
2022-11-14T04:57:31.849Z,97.00
2022-11-14T05:00:21.115Z,97.09
2022-11-14T05:03:10.782Z,97.00
2022-11-14T05:06:02.971Z,97.13
2022-11-14T05:08:52.376Z,97.24
2022-11-14T05:11:41.405Z,97.06
2022-11-14T05:14:31.818Z,96.99
2022-11-14T05:17:21.146Z,96.93
2022-11-14T05:20:11.366Z,97.06
2022-11-14T05:23:00.779Z,96.81
2022-11-14T05:25:59.366Z,96.86
2022-11-14T05:28:48.323Z,97.00
2022-11-14T05:31:37.429Z,96.94
2022-11-14T05:34:26.584Z,96.77
2022-11-14T05:37:16.044Z,96.71
2022-11-14T05:40:05.862Z,96.96
2022-11-14T05:42:59.214Z,96.99
2022-11-14T05:45:48.275Z,97.09
2022-11-14T05:48:37.730Z,97.34
2022-11-14T05:51:29.042Z,97.48
2022-11-14T05:54:18.804Z,97.48
2022-11-14T05:57:08.666Z,97.64
2022-11-14T06:00:00.193Z,97.51
2022-11-14T06:02:49.313Z,97.46
2022-11-14T06:05:38.798Z,97.56
2022-11-14T06:08:28.642Z,97.37
2022-11-14T06:11:20.037Z,97.41
2022-11-14T06:14:11.248Z,97.40
2022-11-14T06:17:00.944Z,97.46
2022-11-14T06:19:49.927Z,97.30
2022-11-14T06:22:39.166Z,97.56
2022-11-14T06:25:29.620Z,97.27
2022-11-14T06:28:18.636Z,97.35
2022-11-14T06:31:10.058Z,97.36
2022-11-14T06:33:59.609Z,97.63
2022-11-14T06:36:48.509Z,97.74
2022-11-14T06:39:41.126Z,97.57
2022-11-14T06:42:30.041Z,97.40
2022-11-14T06:45:19.004Z,97.26
2022-11-14T06:48:08.195Z,98.04
2022-11-14T06:50:58.984Z,97.87
2022-11-14T06:53:48.097Z,97.76
2022-11-14T06:56:37.674Z,97.73
2022-11-14T06:59:26.591Z,97.73
2022-11-14T07:02:21.530Z,97.85
2022-11-14T07:05:11.338Z,97.90
2022-11-14T07:08:00.622Z,98.14
2022-11-14T07:10:49.967Z,98.05
2022-11-14T07:13:39.575Z,98.32
2022-11-14T07:16:30.637Z,98.35
2022-11-14T07:19:20.170Z,98.29
2022-11-14T07:22:09.313Z,98.47
2022-11-14T07:24:58.586Z,98.42
2022-11-14T07:27:48.183Z,98.57
2022-11-14T07:30:37.358Z,98.71
2022-11-14T07:33:26.680Z,98.73
2022-11-14T07:36:16.703Z,98.66
2022-11-14T07:39:05.885Z,98.68
2022-11-14T07:41:55.079Z,98.90
2022-11-14T07:44:44.006Z,99.15
2022-11-14T07:47:58.416Z,98.85
2022-11-14T07:51:19.346Z,98.65
2022-11-14T07:54:32.672Z,98.68
2022-11-14T08:01:37.660Z,99.01
2022-11-14T08:04:51.759Z,99.00
2022-11-14T08:08:12.609Z,98.93
2022-11-14T08:20:36.889Z,98.63
2022-11-14T08:27:48.713Z,98.51
2022-11-14T08:31:03.238Z,98.80
2022-11-14T08:34:23.785Z,98.72
2022-11-14T08:37:36.952Z,98.63
2022-11-14T08:41:00.407Z,98.80
2022-11-14T08:44:13.878Z,98.61
2022-11-14T08:47:33.679Z,98.53
2022-11-14T08:50:47.822Z,98.92
2022-11-14T08:54:08.625Z,98.66
2022-11-14T08:57:22.755Z,98.40
2022-11-14T09:00:42.986Z,98.20
2022-11-14T09:03:59.768Z,98.51
2022-11-14T09:12:35.844Z,98.64
2022-11-14T09:45:52.887Z,98.06
2022-11-14T09:49:10.368Z,98.08
2022-11-14T09:52:38.069Z,98.15
2022-11-14T09:55:52.277Z,97.99
2022-11-14T09:59:05.016Z,98.51
2022-11-14T10:06:48.458Z,98.18
2022-11-14T10:49:33.771Z,97.56
2022-11-14T10:56:52.141Z,97.43
2022-11-14T11:03:58.226Z,97.84
2022-11-14T11:15:25.461Z,96.10
2022-11-14T11:22:45.129Z,94.95
2022-11-14T11:30:27.482Z,95.04
2022-11-14T11:42:15.979Z,91.28
2022-11-14T11:45:13.021Z,89.84
2022-11-14T11:48:02.944Z,88.45
2022-11-14T11:50:51.814Z,88.87
2022-11-14T11:53:42.423Z,89.97
2022-11-14T11:56:33.072Z,88.18
2022-11-14T11:59:28.087Z,88.64
2022-11-14T12:02:22.731Z,87.67
2022-11-14T12:05:15.483Z,84.67
2022-11-14T12:08:07.589Z,83.17
2022-11-14T12:10:58.141Z,84.93
2022-11-14T12:14:00.636Z,82.47
2022-11-14T12:17:02.673Z,81.34
2022-11-14T12:20:01.671Z,81.43
2022-11-14T12:23:04.265Z,81.12
2022-11-14T12:26:14.796Z,81.70
2022-11-14T12:29:12.465Z,79.25
2022-11-14T12:32:06.893Z,78.59
2022-11-14T12:34:55.959Z,78.62
2022-11-14T12:37:52.698Z,77.93
2022-11-14T12:40:50.660Z,76.96
2022-11-14T12:43:40.450Z,78.64
2022-11-14T12:46:49.847Z,77.66
2022-11-14T12:49:40.529Z,76.89
2022-11-14T12:52:51.963Z,75.74
2022-11-14T12:56:03.753Z,75.33
2022-11-14T12:59:11.838Z,74.67
2022-11-14T13:02:14.924Z,73.87
2022-11-14T13:05:17.288Z,73.36
2022-11-14T13:08:16.813Z,72.93
2022-11-14T13:11:39.390Z,73.14
2022-11-14T13:14:49.540Z,72.60
2022-11-14T13:17:57.804Z,73.60
2022-11-14T13:21:05.286Z,74.10
2022-11-14T13:23:57.906Z,73.84
2022-11-14T13:26:48.164Z,73.74
2022-11-14T13:29:57.904Z,74.22
2022-11-14T13:33:04.606Z,74.13
2022-11-14T13:36:02.130Z,74.48
2022-11-14T13:39:10.913Z,74.27
2022-11-14T13:42:17.174Z,74.05
2022-11-14T13:45:28.838Z,74.27
2022-11-14T13:48:25.136Z,73.94
2022-11-14T13:51:41.861Z,73.81
2022-11-14T13:54:29.351Z,73.50
2022-11-14T13:57:27.854Z,72.80
2022-11-14T14:00:20.804Z,72.83
2022-11-14T14:03:16.907Z,72.99
2022-11-14T14:06:14.180Z,73.66
2022-11-14T14:09:10.917Z,73.68
2022-11-14T14:12:11.879Z,73.49
2022-11-14T14:15:05.743Z,73.49
2022-11-14T14:18:00.987Z,73.59
2022-11-14T14:20:54.844Z,73.77
2022-11-14T14:23:47.298Z,73.73
2022-11-14T14:26:42.533Z,73.97
2022-11-14T14:29:39.769Z,74.08
2022-11-14T14:32:29.531Z,74.39
2022-11-14T14:35:26.165Z,74.44
2022-11-14T14:38:23.273Z,74.84
2022-11-14T14:41:14.340Z,75.08
2022-11-14T14:44:27.901Z,75.15
2022-11-14T14:51:36.435Z,75.98
2022-11-14T14:59:18.433Z,76.90
2022-11-14T15:07:25.941Z,77.36
2022-11-14T15:10:40.167Z,77.87
2022-11-14T15:13:56.577Z,78.18
2022-11-14T15:21:30.950Z,78.84
2022-11-14T15:33:46.721Z,79.64
2022-11-14T15:37:44.360Z,79.94
2022-11-14T15:44:05.357Z,80.60
2022-11-14T15:47:26.286Z,81.12
2022-11-14T15:50:45.409Z,81.47
2022-11-14T15:53:34.822Z,81.93
2022-11-14T15:56:55.306Z,81.87
2022-11-14T16:00:12.925Z,81.89
2022-11-14T16:03:32.569Z,82.28
2022-11-14T16:10:43.481Z,83.08
2022-11-14T16:13:57.306Z,83.32
2022-11-14T16:17:17.595Z,83.85
2022-11-14T16:38:21.045Z,85.40
2022-11-14T16:45:56.956Z,85.95
2022-11-14T16:53:07.433Z,86.65
2022-11-14T16:56:20.373Z,86.84
2022-11-14T16:59:40.471Z,86.78
2022-11-14T17:07:03.962Z,87.38
2022-11-14T17:09:53.332Z,87.21
2022-11-14T17:12:42.361Z,87.62
2022-11-14T17:15:33.096Z,88.06
2022-11-14T17:18:22.680Z,87.97
2022-11-14T17:21:12.821Z,88.03
2022-11-14T17:24:02.838Z,88.19
2022-11-14T17:26:52.203Z,88.35
2022-11-14T17:29:41.514Z,88.31
2022-11-14T17:32:32.133Z,88.21
2022-11-14T17:35:21.485Z,88.30
2022-11-14T17:38:11.800Z,88.49
2022-11-14T17:41:01.447Z,88.45
2022-11-14T17:47:46.811Z,88.69
2022-11-14T17:51:05.273Z,88.92
2022-11-14T17:54:31.625Z,88.85
2022-11-14T17:57:45.481Z,89.12
2022-11-14T18:01:09.830Z,89.38
2022-11-14T18:04:31.619Z,89.17
2022-11-14T18:07:45.426Z,89.57
2022-11-14T18:14:55.595Z,89.66
2022-11-14T18:18:09.101Z,89.82
2022-11-14T18:21:28.584Z,89.70
2022-11-14T18:33:46.810Z,90.28
2022-11-14T18:37:32.740Z,90.79
2022-11-14T18:49:23.359Z,90.80
2022-11-14T18:52:37.373Z,90.96
2022-11-14T18:55:58.347Z,90.91
2022-11-14T18:59:11.796Z,90.82
2022-11-14T19:02:32.691Z,90.95
2022-11-14T19:05:46.805Z,91.05
2022-11-14T19:09:02.774Z,91.04
2022-11-14T19:16:01.426Z,91.21
2022-11-14T19:32:07.312Z,91.37
2022-11-14T19:35:21.207Z,91.60
2022-11-14T19:47:42.750Z,91.55
2022-11-14T19:54:54.928Z,91.99
2022-11-14T19:58:08.757Z,92.12
2022-11-14T20:01:30.065Z,92.12
2022-11-14T20:04:44.105Z,92.26
2022-11-14T20:08:04.868Z,92.16
2022-11-14T20:11:19.315Z,92.39
2022-11-14T20:14:38.980Z,92.73
2022-11-14T20:17:52.881Z,92.81
2022-11-14T20:21:07.976Z,93.01
2022-11-14T20:24:50.575Z,92.91
2022-11-14T20:28:12.287Z,92.89
2022-11-14T20:31:25.392Z,92.69
2022-11-14T20:34:38.975Z,92.84
2022-11-14T20:41:46.479Z,92.91
2022-11-14T20:45:00.325Z,92.84
2022-11-14T20:48:17.693Z,92.93
2022-11-14T20:55:38.986Z,93.11
2022-11-14T20:58:28.554Z,93.18
2022-11-14T21:01:17.764Z,93.17
2022-11-14T21:04:07.706Z,93.25
2022-11-14T21:06:57.023Z,93.11
2022-11-14T21:09:46.130Z,93.20
2022-11-14T21:12:35.436Z,93.47
2022-11-14T21:15:24.775Z,93.35
2022-11-14T21:18:14.159Z,93.46
2022-11-14T21:21:04.685Z,93.30
2022-11-14T21:23:53.623Z,93.37
2022-11-14T21:26:43.143Z,93.37
2022-11-14T21:29:32.837Z,93.30
2022-11-14T21:32:22.233Z,93.37
2022-11-14T21:35:11.429Z,93.41
2022-11-14T21:38:00.603Z,93.48
2022-11-14T21:40:54.381Z,93.42
2022-11-14T21:43:43.717Z,93.49
2022-11-14T21:46:32.635Z,93.37
2022-11-14T21:49:21.932Z,93.44
2022-11-14T21:52:11.007Z,93.40
2022-11-14T21:55:00.332Z,93.64
2022-11-14T21:57:49.567Z,93.78
2022-11-14T22:00:38.562Z,93.67
2022-11-14T22:03:45.618Z,93.77
2022-11-14T22:06:34.725Z,93.82
2022-11-14T22:09:24.505Z,93.71
2022-11-14T22:12:13.752Z,93.88
2022-11-14T22:15:02.859Z,93.92
2022-11-14T22:17:52.634Z,94.04
2022-11-14T22:20:42.175Z,93.97
2022-11-14T22:23:34.107Z,94.15
2022-11-14T22:26:24.121Z,94.04
2022-11-14T22:29:13.871Z,94.18
2022-11-14T22:32:03.072Z,94.13
2022-11-14T22:34:52.241Z,94.15
2022-11-14T22:37:41.402Z,94.27
2022-11-14T22:40:30.858Z,94.45
2022-11-14T22:43:22.442Z,94.58
2022-11-14T22:46:12.528Z,94.68
2022-11-14T22:49:03.888Z,94.79
2022-11-14T22:51:53.191Z,94.74
2022-11-14T22:54:42.331Z,94.75
2022-11-14T22:57:31.702Z,94.81
2022-11-14T23:00:23.675Z,94.97
2022-11-14T23:03:17.599Z,94.90
2022-11-14T23:06:11.086Z,95.01
2022-11-14T23:09:00.537Z,94.90
2022-11-14T23:11:50.267Z,94.90
2022-11-14T23:14:39.590Z,95.09
2022-11-14T23:17:28.510Z,95.03
2022-11-14T23:20:17.510Z,95.26
2022-11-14T23:23:07.362Z,95.04
2022-11-14T23:25:56.889Z,95.15
2022-11-14T23:28:46.494Z,95.39
2022-11-14T23:31:35.890Z,95.12
2022-11-14T23:34:25.101Z,95.25
2022-11-14T23:37:17.646Z,95.26
2022-11-14T23:40:07.964Z,95.13
2022-11-14T23:42:57.331Z,95.03
2022-11-14T23:45:46.990Z,95.10
2022-11-14T23:48:35.949Z,95.05
2022-11-14T23:51:25.642Z,95.10
2022-11-14T23:54:17.372Z,95.06
2022-11-14T23:57:08.761Z,95.18
